AAY876 KRDU-KHVN
Flight info
| Callsign | AAY876 |
|---|---|
| Flight time | 1h 17m |
| Altitude | 35000 |
| Route | HURIC4 FEBEL GUILD SAWED KALDA SARDI1 |
| Aircraft | B38M/M-SDE1FGHILORVWXY/HB1 |
Departure
| Time | 2026-05-06 16:29 |
|---|---|
| Airport | Raleigh-Durham International Airport (KRDU) |
Arrival
| Time | 2026-05-06 17:46 |
|---|---|
| Airport | Tweed New Haven Airport (KHVN) |
| Time | Latitude | Longitude | Altitude | Speed | Heading |
|---|---|---|---|---|---|
| 2026-05-06 15:50 | 35.87397 | -78.78954 | 432 ft | 0 kts | 301° |
| 2026-05-06 16:22 | 35.87390 | -78.78941 | 432 ft | 2 kts | 301° |
| 2026-05-06 16:22 | 35.87382 | -78.78923 | 420 ft | 2 kts | 301° |
| 2026-05-06 16:22 | 35.87373 | -78.78906 | 431 ft | 2 kts | 302° |
| 2026-05-06 16:22 | 35.87364 | -78.78889 | 420 ft | 2 kts | 306° |
| 2026-05-06 16:23 | 35.87355 | -78.78875 | 421 ft | 1 kts | 314° |
| 2026-05-06 16:23 | 35.87353 | -78.78872 | 422 ft | 0 kts | 315° |
| 2026-05-06 16:25 | 35.87356 | -78.78875 | 424 ft | 3 kts | 323° |
| 2026-05-06 16:25 | 35.87384 | -78.78845 | 424 ft | 9 kts | 68° |
| 2026-05-06 16:25 | 35.87411 | -78.78765 | 433 ft | 11 kts | 66° |
| 2026-05-06 16:26 | 35.87463 | -78.78691 | 425 ft | 13 kts | 45° |
| 2026-05-06 16:26 | 35.87533 | -78.78605 | 431 ft | 15 kts | 45° |
| 2026-05-06 16:26 | 35.87609 | -78.78511 | 429 ft | 16 kts | 44° |
| 2026-05-06 16:26 | 35.87697 | -78.78403 | 426 ft | 20 kts | 45° |
| 2026-05-06 16:27 | 35.87796 | -78.78280 | 437 ft | 21 kts | 45° |
| 2026-05-06 16:27 | 35.87894 | -78.78160 | 430 ft | 7 kts | 44° |
| 2026-05-06 16:27 | 35.87930 | -78.78116 | 426 ft | 7 kts | 44° |
| 2026-05-06 16:27 | 35.87963 | -78.78070 | 432 ft | 7 kts | 61° |
| 2026-05-06 16:28 | 35.87962 | -78.78018 | 445 ft | 7 kts | 117° |
| 2026-05-06 16:28 | 35.87923 | -78.77971 | 445 ft | 7 kts | 139° |
| 2026-05-06 16:28 | 35.87881 | -78.77989 | 441 ft | 13 kts | 225° |
| 2026-05-06 16:28 | 35.87659 | -78.78263 | 432 ft | 81 kts | 225° |
| 2026-05-06 16:29 | 35.87106 | -78.78943 | 417 ft | 141 kts | 224° |
| 2026-05-06 16:29 | 35.86321 | -78.79912 | 706 ft | 166 kts | 224° |
| 2026-05-06 16:29 | 35.85510 | -78.80886 | 1586 ft | 160 kts | 216° |
| 2026-05-06 16:29 | 35.84359 | -78.81254 | 1998 ft | 194 kts | 173° |
| 2026-05-06 16:30 | 35.83196 | -78.80298 | 2754 ft | 214 kts | 128° |
| 2026-05-06 16:30 | 35.82835 | -78.79140 | 3338 ft | 228 kts | 101° |
| 2026-05-06 16:30 | 35.83054 | -78.76416 | 4285 ft | 252 kts | 82° |
| 2026-05-06 16:30 | 35.83456 | -78.74224 | 4858 ft | 273 kts | 77° |
| 2026-05-06 16:31 | 35.83946 | -78.71879 | 5440 ft | 292 kts | 77° |
| 2026-05-06 16:31 | 35.84451 | -78.69406 | 6200 ft | 300 kts | 78° |
| 2026-05-06 16:31 | 35.84953 | -78.66928 | 7082 ft | 305 kts | 77° |
| 2026-05-06 16:31 | 35.85465 | -78.64369 | 7934 ft | 309 kts | 78° |
| 2026-05-06 16:32 | 35.85982 | -78.61786 | 8824 ft | 313 kts | 78° |
| 2026-05-06 16:32 | 35.86505 | -78.59163 | 9691 ft | 318 kts | 78° |
| 2026-05-06 16:32 | 35.87035 | -78.56494 | 10418 ft | 327 kts | 77° |
| 2026-05-06 16:32 | 35.87593 | -78.53687 | 10858 ft | 346 kts | 77° |
| 2026-05-06 16:33 | 35.88176 | -78.50749 | 11428 ft | 359 kts | 77° |
| 2026-05-06 16:33 | 35.88774 | -78.47730 | 12260 ft | 363 kts | 77° |
| 2026-05-06 16:33 | 35.89376 | -78.44686 | 13131 ft | 368 kts | 77° |
| 2026-05-06 16:34 | 35.90603 | -78.38469 | 14806 ft | 377 kts | 76° |
| 2026-05-06 16:34 | 35.91225 | -78.35309 | 15623 ft | 382 kts | 76° |
| 2026-05-06 16:34 | 35.91833 | -78.32096 | 16410 ft | 386 kts | 81° |
| 2026-05-06 16:34 | 35.92143 | -78.28790 | 17204 ft | 390 kts | 84° |
| 2026-05-06 16:35 | 35.92452 | -78.25437 | 17954 ft | 396 kts | 83° |
| 2026-05-06 16:35 | 35.92782 | -78.22041 | 18647 ft | 400 kts | 83° |
| 2026-05-06 16:35 | 35.93124 | -78.18623 | 19305 ft | 404 kts | 82° |
| 2026-05-06 16:35 | 35.93474 | -78.15173 | 19955 ft | 407 kts | 82° |
| 2026-05-06 16:36 | 35.93823 | -78.11682 | 20582 ft | 411 kts | 82° |
| 2026-05-06 16:36 | 35.94152 | -78.08171 | 21192 ft | 414 kts | 82° |
| 2026-05-06 16:36 | 35.94486 | -78.04633 | 21784 ft | 418 kts | 82° |
| 2026-05-06 16:36 | 35.94824 | -78.01043 | 22377 ft | 422 kts | 82° |
| 2026-05-06 16:37 | 35.95163 | -77.97432 | 22961 ft | 425 kts | 82° |
| 2026-05-06 16:37 | 35.95504 | -77.93789 | 23541 ft | 429 kts | 81° |
| 2026-05-06 16:37 | 35.96142 | -77.90213 | 24031 ft | 427 kts | 65° |
| 2026-05-06 16:37 | 35.97545 | -77.87014 | 24556 ft | 424 kts | 52° |
| 2026-05-06 16:38 | 35.99170 | -77.83957 | 24998 ft | 428 kts | 52° |
| 2026-05-06 16:38 | 36.00825 | -77.80883 | 25500 ft | 430 kts | 52° |
| 2026-05-06 16:38 | 36.02499 | -77.77810 | 25995 ft | 433 kts | 52° |
| 2026-05-06 16:38 | 36.04195 | -77.74719 | 26488 ft | 435 kts | 52° |
| 2026-05-06 16:39 | 36.05877 | -77.71660 | 26942 ft | 438 kts | 51° |
| 2026-05-06 16:39 | 36.07616 | -77.68496 | 27407 ft | 441 kts | 51° |
| 2026-05-06 16:39 | 36.09348 | -77.65345 | 27882 ft | 444 kts | 51° |
| 2026-05-06 16:39 | 36.11087 | -77.62177 | 28361 ft | 446 kts | 51° |
| 2026-05-06 16:40 | 36.12242 | -77.60071 | 28643 ft | 448 kts | 51° |
| 2026-05-06 16:40 | 36.13999 | -77.56866 | 29075 ft | 451 kts | 51° |
| 2026-05-06 16:40 | 36.16340 | -77.52590 | 29654 ft | 455 kts | 51° |
| 2026-05-06 16:40 | 36.18117 | -77.49340 | 30097 ft | 457 kts | 51° |
| 2026-05-06 16:41 | 36.19900 | -77.46079 | 30436 ft | 460 kts | 51° |
| 2026-05-06 16:41 | 36.21695 | -77.42791 | 30796 ft | 462 kts | 51° |
| 2026-05-06 16:41 | 36.22916 | -77.40552 | 31045 ft | 464 kts | 51° |
| 2026-05-06 16:41 | 36.24459 | -77.37721 | 31349 ft | 465 kts | 51° |
| 2026-05-06 16:42 | 36.25602 | -77.35622 | 31590 ft | 466 kts | 51° |
| 2026-05-06 16:42 | 36.27426 | -77.32271 | 31923 ft | 469 kts | 51° |
| 2026-05-06 16:42 | 36.29252 | -77.28913 | 32278 ft | 471 kts | 51° |
| 2026-05-06 16:42 | 36.31120 | -77.25581 | 32624 ft | 469 kts | 45° |
| 2026-05-06 16:43 | 36.33416 | -77.22790 | 33090 ft | 459 kts | 35° |
| 2026-05-06 16:43 | 36.35785 | -77.20123 | 33502 ft | 461 kts | 37° |
| 2026-05-06 16:43 | 36.38152 | -77.17444 | 33969 ft | 460 kts | 36° |
| 2026-05-06 16:43 | 36.40514 | -77.14791 | 34396 ft | 458 kts | 36° |
| 2026-05-06 16:44 | 36.42849 | -77.12174 | 34763 ft | 457 kts | 36° |
| 2026-05-06 16:44 | 36.45213 | -77.09525 | 35004 ft | 460 kts | 36° |
| 2026-05-06 16:44 | 36.47608 | -77.06838 | 35044 ft | 467 kts | 36° |
| 2026-05-06 16:45 | 36.52426 | -77.01423 | 35021 ft | 467 kts | 36° |
| 2026-05-06 16:45 | 36.57249 | -76.95996 | 35030 ft | 468 kts | 36° |
| 2026-05-06 16:46 | 36.62067 | -76.90566 | 35019 ft | 467 kts | 36° |
| 2026-05-06 16:46 | 36.66896 | -76.85113 | 35028 ft | 468 kts | 36° |
| 2026-05-06 16:47 | 36.71712 | -76.79665 | 35018 ft | 468 kts | 36° |
| 2026-05-06 16:47 | 36.76534 | -76.74200 | 35026 ft | 468 kts | 36° |
| 2026-05-06 16:48 | 36.81353 | -76.68730 | 35022 ft | 468 kts | 36° |
| 2026-05-06 16:48 | 36.86168 | -76.63254 | 35034 ft | 469 kts | 36° |
| 2026-05-06 16:49 | 36.90979 | -76.57773 | 35024 ft | 468 kts | 36° |
| 2026-05-06 16:49 | 36.95800 | -76.52271 | 35024 ft | 469 kts | 37° |
| 2026-05-06 16:50 | 37.00577 | -76.46808 | 34995 ft | 469 kts | 37° |
| 2026-05-06 16:50 | 37.05392 | -76.41293 | 35009 ft | 469 kts | 37° |
| 2026-05-06 16:51 | 37.10201 | -76.35776 | 34991 ft | 468 kts | 37° |
| 2026-05-06 16:51 | 37.15004 | -76.30253 | 34997 ft | 469 kts | 37° |
| 2026-05-06 16:52 | 37.19813 | -76.24716 | 34991 ft | 469 kts | 37° |
| 2026-05-06 16:52 | 37.24609 | -76.19183 | 35011 ft | 469 kts | 37° |
| 2026-05-06 16:53 | 37.29412 | -76.13631 | 34984 ft | 469 kts | 37° |
| 2026-05-06 16:53 | 37.34212 | -76.08074 | 34988 ft | 469 kts | 38° |
| 2026-05-06 16:54 | 37.39003 | -76.02516 | 34986 ft | 469 kts | 38° |
| 2026-05-06 16:54 | 37.43801 | -75.96941 | 34991 ft | 469 kts | 38° |
| 2026-05-06 16:55 | 37.48557 | -75.91406 | 34983 ft | 469 kts | 38° |
| 2026-05-06 16:55 | 37.53419 | -75.85876 | 34980 ft | 465 kts | 31° |
| 2026-05-06 16:56 | 37.58901 | -75.81683 | 34984 ft | 461 kts | 26° |
| 2026-05-06 16:56 | 37.64370 | -75.77563 | 34987 ft | 461 kts | 26° |
| 2026-05-06 16:57 | 37.69882 | -75.73425 | 34979 ft | 461 kts | 26° |
| 2026-05-06 16:57 | 37.75395 | -75.69280 | 34997 ft | 461 kts | 26° |
| 2026-05-06 16:58 | 37.80906 | -75.65130 | 34993 ft | 461 kts | 26° |
| 2026-05-06 16:58 | 37.86302 | -75.60729 | 35011 ft | 463 kts | 31° |
| 2026-05-06 16:59 | 37.91611 | -75.56110 | 35001 ft | 462 kts | 30° |
| 2026-05-06 16:59 | 37.96894 | -75.51547 | 35001 ft | 463 kts | 30° |
| 2026-05-06 17:00 | 38.02212 | -75.46949 | 34988 ft | 462 kts | 30° |
| 2026-05-06 17:00 | 38.07584 | -75.42465 | 35003 ft | 462 kts | 28° |
| 2026-05-06 17:01 | 38.12991 | -75.38051 | 34978 ft | 461 kts | 29° |
| 2026-05-06 17:01 | 38.18385 | -75.33627 | 34971 ft | 462 kts | 29° |
| 2026-05-06 17:02 | 38.23780 | -75.29196 | 34980 ft | 461 kts | 28° |
| 2026-05-06 17:02 | 38.26633 | -75.27399 | 34981 ft | 454 kts | 16° |
| 2026-05-06 17:02 | 38.29592 | -75.25989 | 34980 ft | 456 kts | 13° |
| 2026-05-06 17:03 | 38.35463 | -75.23123 | 34997 ft | 456 kts | 17° |
| 2026-05-06 17:03 | 38.41386 | -75.20254 | 34978 ft | 456 kts | 17° |
| 2026-05-06 17:04 | 38.47289 | -75.17393 | 34976 ft | 457 kts | 17° |
| 2026-05-06 17:04 | 38.53231 | -75.14508 | 34957 ft | 457 kts | 17° |
| 2026-05-06 17:05 | 38.59177 | -75.11614 | 34946 ft | 457 kts | 17° |
| 2026-05-06 17:05 | 38.64999 | -75.08323 | 34922 ft | 464 kts | 32° |
| 2026-05-06 17:06 | 38.69948 | -75.02925 | 34939 ft | 469 kts | 38° |
| 2026-05-06 17:06 | 38.74831 | -74.97370 | 34940 ft | 470 kts | 38° |
| 2026-05-06 17:07 | 38.79740 | -74.91945 | 34729 ft | 460 kts | 34° |
| 2026-05-06 17:07 | 38.82233 | -74.89378 | 34485 ft | 459 kts | 35° |
| 2026-05-06 17:07 | 38.84710 | -74.86801 | 34235 ft | 459 kts | 35° |
| 2026-05-06 17:07 | 38.87189 | -74.84210 | 33990 ft | 460 kts | 35° |
| 2026-05-06 17:08 | 38.89666 | -74.81615 | 33721 ft | 460 kts | 35° |
| 2026-05-06 17:08 | 38.92149 | -74.79012 | 33445 ft | 461 kts | 35° |
| 2026-05-06 17:08 | 38.94634 | -74.76404 | 33160 ft | 462 kts | 35° |
| 2026-05-06 17:08 | 38.97130 | -74.73788 | 32877 ft | 461 kts | 35° |
| 2026-05-06 17:09 | 38.99591 | -74.71207 | 32413 ft | 454 kts | 35° |
| 2026-05-06 17:09 | 39.02024 | -74.68653 | 31859 ft | 451 kts | 35° |
| 2026-05-06 17:09 | 39.04447 | -74.66109 | 31280 ft | 448 kts | 35° |
| 2026-05-06 17:09 | 39.06855 | -74.63577 | 30762 ft | 445 kts | 35° |
| 2026-05-06 17:10 | 39.09242 | -74.61065 | 30246 ft | 442 kts | 35° |
| 2026-05-06 17:10 | 39.11614 | -74.58567 | 29682 ft | 439 kts | 35° |
| 2026-05-06 17:10 | 39.13933 | -74.56106 | 29093 ft | 437 kts | 36° |
| 2026-05-06 17:10 | 39.16250 | -74.53585 | 28490 ft | 435 kts | 36° |
| 2026-05-06 17:11 | 39.18549 | -74.51085 | 28043 ft | 430 kts | 36° |
| 2026-05-06 17:11 | 39.20823 | -74.48613 | 27570 ft | 426 kts | 37° |
| 2026-05-06 17:11 | 39.23084 | -74.46155 | 27068 ft | 428 kts | 37° |
| 2026-05-06 17:11 | 39.25368 | -74.43669 | 26567 ft | 432 kts | 37° |
| 2026-05-06 17:12 | 39.27670 | -74.41156 | 26052 ft | 433 kts | 37° |
| 2026-05-06 17:12 | 39.29960 | -74.38637 | 25481 ft | 432 kts | 37° |
| 2026-05-06 17:12 | 39.32240 | -74.36130 | 25028 ft | 428 kts | 38° |
| 2026-05-06 17:12 | 39.34500 | -74.33643 | 24562 ft | 426 kts | 38° |
| 2026-05-06 17:13 | 39.36749 | -74.31165 | 24088 ft | 424 kts | 38° |
| 2026-05-06 17:13 | 39.38982 | -74.28704 | 23637 ft | 422 kts | 38° |
| 2026-05-06 17:13 | 39.41210 | -74.26246 | 23097 ft | 420 kts | 38° |
| 2026-05-06 17:13 | 39.43423 | -74.23802 | 22603 ft | 417 kts | 38° |
| 2026-05-06 17:14 | 39.45619 | -74.21368 | 22135 ft | 414 kts | 38° |
| 2026-05-06 17:14 | 39.47800 | -74.18947 | 21642 ft | 412 kts | 38° |
| 2026-05-06 17:14 | 39.49966 | -74.16538 | 21237 ft | 408 kts | 38° |
| 2026-05-06 17:14 | 39.52102 | -74.14133 | 20942 ft | 404 kts | 41° |
| 2026-05-06 17:15 | 39.53972 | -74.11366 | 20924 ft | 412 kts | 48° |
| 2026-05-06 17:15 | 39.55799 | -74.08497 | 20921 ft | 414 kts | 48° |
| 2026-05-06 17:15 | 39.57636 | -74.05620 | 20921 ft | 415 kts | 48° |
| 2026-05-06 17:15 | 39.59472 | -74.02743 | 20927 ft | 415 kts | 48° |
| 2026-05-06 17:16 | 39.61311 | -73.99858 | 20921 ft | 415 kts | 48° |
| 2026-05-06 17:16 | 39.63147 | -73.96977 | 20922 ft | 415 kts | 48° |
| 2026-05-06 17:16 | 39.64965 | -73.94121 | 20916 ft | 415 kts | 48° |
| 2026-05-06 17:16 | 39.66804 | -73.91229 | 20916 ft | 415 kts | 48° |
| 2026-05-06 17:17 | 39.68637 | -73.88344 | 20847 ft | 411 kts | 48° |
| 2026-05-06 17:17 | 39.70483 | -73.85437 | 20275 ft | 412 kts | 48° |
| 2026-05-06 17:17 | 39.72279 | -73.82606 | 19712 ft | 413 kts | 48° |
| 2026-05-06 17:17 | 39.74127 | -73.79689 | 18855 ft | 423 kts | 48° |
| 2026-05-06 17:18 | 39.76005 | -73.76721 | 18233 ft | 423 kts | 48° |
| 2026-05-06 17:18 | 39.77819 | -73.73851 | 18301 ft | 405 kts | 48° |
| 2026-05-06 17:18 | 39.79601 | -73.71032 | 18118 ft | 401 kts | 48° |
| 2026-05-06 17:18 | 39.81364 | -73.68240 | 17905 ft | 400 kts | 48° |
| 2026-05-06 17:19 | 39.83128 | -73.65443 | 17756 ft | 399 kts | 48° |
| 2026-05-06 17:19 | 39.84884 | -73.62655 | 17606 ft | 398 kts | 48° |
| 2026-05-06 17:19 | 39.86636 | -73.59873 | 17426 ft | 397 kts | 48° |
| 2026-05-06 17:19 | 39.88384 | -73.57093 | 17248 ft | 397 kts | 48° |
| 2026-05-06 17:20 | 39.90152 | -73.54334 | 17041 ft | 395 kts | 44° |
| 2026-05-06 17:20 | 39.92149 | -73.51910 | 16848 ft | 392 kts | 39° |
| 2026-05-06 17:20 | 39.94165 | -73.49527 | 16666 ft | 392 kts | 39° |
| 2026-05-06 17:20 | 39.96188 | -73.47136 | 16487 ft | 392 kts | 39° |
| 2026-05-06 17:21 | 39.98203 | -73.44752 | 16311 ft | 391 kts | 39° |
| 2026-05-06 17:21 | 40.00214 | -73.42371 | 16125 ft | 390 kts | 39° |
| 2026-05-06 17:21 | 40.02224 | -73.39990 | 15944 ft | 390 kts | 39° |
| 2026-05-06 17:21 | 40.04230 | -73.37613 | 15749 ft | 389 kts | 39° |
| 2026-05-06 17:22 | 40.06230 | -73.35238 | 15582 ft | 389 kts | 39° |
| 2026-05-06 17:22 | 40.08231 | -73.32862 | 15390 ft | 388 kts | 39° |
| 2026-05-06 17:22 | 40.10227 | -73.30490 | 15215 ft | 388 kts | 39° |
| 2026-05-06 17:22 | 40.12218 | -73.28120 | 15022 ft | 387 kts | 39° |
| 2026-05-06 17:23 | 40.14208 | -73.25749 | 14838 ft | 387 kts | 39° |
| 2026-05-06 17:23 | 40.16192 | -73.23383 | 14661 ft | 386 kts | 39° |
| 2026-05-06 17:23 | 40.18182 | -73.21009 | 14483 ft | 386 kts | 39° |
| 2026-05-06 17:23 | 40.20160 | -73.18647 | 14301 ft | 386 kts | 39° |
| 2026-05-06 17:24 | 40.22116 | -73.16308 | 14126 ft | 385 kts | 39° |
| 2026-05-06 17:24 | 40.24118 | -73.13914 | 13942 ft | 385 kts | 39° |
| 2026-05-06 17:24 | 40.26088 | -73.11555 | 13714 ft | 383 kts | 39° |
| 2026-05-06 17:24 | 40.28032 | -73.09227 | 13218 ft | 384 kts | 39° |
| 2026-05-06 17:25 | 40.29991 | -73.06880 | 12808 ft | 381 kts | 39° |
| 2026-05-06 17:25 | 40.31938 | -73.04544 | 12366 ft | 379 kts | 39° |
| 2026-05-06 17:25 | 40.33881 | -73.02212 | 11929 ft | 377 kts | 39° |
| 2026-05-06 17:25 | 40.35781 | -72.99931 | 11583 ft | 362 kts | 39° |
| 2026-05-06 17:26 | 40.37607 | -72.97737 | 11261 ft | 349 kts | 39° |
| 2026-05-06 17:26 | 40.39379 | -72.95606 | 11043 ft | 343 kts | 39° |
| 2026-05-06 17:26 | 40.41125 | -72.93506 | 10793 ft | 338 kts | 39° |
| 2026-05-06 17:26 | 40.42857 | -72.91419 | 10431 ft | 338 kts | 39° |
| 2026-05-06 17:27 | 40.44590 | -72.89329 | 10111 ft | 337 kts | 40° |
| 2026-05-06 17:27 | 40.46313 | -72.87251 | 9777 ft | 336 kts | 40° |
| 2026-05-06 17:27 | 40.48030 | -72.85176 | 9430 ft | 334 kts | 40° |
| 2026-05-06 17:27 | 40.49739 | -72.83111 | 9089 ft | 333 kts | 40° |
| 2026-05-06 17:28 | 40.51438 | -72.81056 | 8775 ft | 331 kts | 40° |
| 2026-05-06 17:28 | 40.53123 | -72.79016 | 8464 ft | 328 kts | 41° |
| 2026-05-06 17:28 | 40.54796 | -72.76987 | 8149 ft | 326 kts | 41° |
| 2026-05-06 17:28 | 40.56460 | -72.74969 | 7817 ft | 325 kts | 41° |
| 2026-05-06 17:29 | 40.58096 | -72.72983 | 7516 ft | 323 kts | 41° |
| 2026-05-06 17:29 | 40.59746 | -72.71001 | 7212 ft | 320 kts | 38° |
| 2026-05-06 17:29 | 40.61677 | -72.69704 | 6920 ft | 308 kts | 7° |
| 2026-05-06 17:29 | 40.63781 | -72.69406 | 6550 ft | 303 kts | 357° |
| 2026-05-06 17:30 | 40.65881 | -72.69280 | 6265 ft | 301 kts | 357° |
| 2026-05-06 17:30 | 40.67974 | -72.69161 | 5938 ft | 301 kts | 357° |
| 2026-05-06 17:30 | 40.70055 | -72.69051 | 5612 ft | 299 kts | 357° |
| 2026-05-06 17:30 | 40.72131 | -72.68944 | 5297 ft | 297 kts | 357° |
| 2026-05-06 17:31 | 40.74198 | -72.68849 | 4975 ft | 296 kts | 357° |
| 2026-05-06 17:31 | 40.75590 | -72.68786 | 4769 ft | 295 kts | 356° |
| 2026-05-06 17:31 | 40.77609 | -72.68696 | 4477 ft | 293 kts | 356° |
| 2026-05-06 17:31 | 40.79671 | -72.68593 | 4181 ft | 291 kts | 357° |
| 2026-05-06 17:32 | 40.81660 | -72.68494 | 4039 ft | 290 kts | 356° |
| 2026-05-06 17:32 | 40.83705 | -72.68400 | 4038 ft | 291 kts | 357° |
| 2026-05-06 17:32 | 40.85730 | -72.68305 | 4024 ft | 291 kts | 357° |
| 2026-05-06 17:32 | 40.87730 | -72.68209 | 4030 ft | 292 kts | 357° |
| 2026-05-06 17:33 | 40.89751 | -72.68120 | 4032 ft | 291 kts | 357° |
| 2026-05-06 17:33 | 40.91778 | -72.68017 | 4026 ft | 291 kts | 357° |
| 2026-05-06 17:33 | 40.93805 | -72.67921 | 4032 ft | 292 kts | 356° |
| 2026-05-06 17:33 | 40.95833 | -72.67827 | 4031 ft | 292 kts | 357° |
| 2026-05-06 17:34 | 40.97868 | -72.67728 | 4033 ft | 293 kts | 357° |
| 2026-05-06 17:34 | 40.99906 | -72.67634 | 4022 ft | 292 kts | 356° |
| 2026-05-06 17:34 | 41.01943 | -72.67532 | 4021 ft | 294 kts | 357° |
| 2026-05-06 17:34 | 41.03989 | -72.67431 | 4017 ft | 294 kts | 356° |
| 2026-05-06 17:35 | 41.06031 | -72.67332 | 4014 ft | 293 kts | 356° |
| 2026-05-06 17:35 | 41.08069 | -72.67222 | 4020 ft | 293 kts | 357° |
| 2026-05-06 17:35 | 41.10111 | -72.67123 | 4016 ft | 293 kts | 356° |
| 2026-05-06 17:36 | 41.14191 | -72.66909 | 3990 ft | 293 kts | 357° |
| 2026-05-06 17:36 | 41.16227 | -72.66805 | 3996 ft | 293 kts | 356° |
| 2026-05-06 17:36 | 41.18264 | -72.66706 | 3995 ft | 293 kts | 356° |
| 2026-05-06 17:36 | 41.20304 | -72.66603 | 3998 ft | 293 kts | 356° |
| 2026-05-06 17:37 | 41.22346 | -72.66506 | 4005 ft | 294 kts | 356° |
| 2026-05-06 17:37 | 41.24390 | -72.66409 | 3996 ft | 294 kts | 356° |
| 2026-05-06 17:37 | 41.26428 | -72.66336 | 3994 ft | 292 kts | 353° |
| 2026-05-06 17:37 | 41.28442 | -72.66574 | 4010 ft | 290 kts | 347° |
| 2026-05-06 17:38 | 41.30444 | -72.66903 | 3952 ft | 290 kts | 347° |
| 2026-05-06 17:38 | 41.32449 | -72.67238 | 3679 ft | 290 kts | 347° |
| 2026-05-06 17:38 | 41.34444 | -72.67572 | 3410 ft | 287 kts | 347° |
| 2026-05-06 17:38 | 41.36420 | -72.67909 | 3151 ft | 285 kts | 346° |
| 2026-05-06 17:39 | 41.38380 | -72.68235 | 2882 ft | 282 kts | 347° |
| 2026-05-06 17:39 | 41.40310 | -72.68569 | 2633 ft | 279 kts | 347° |
| 2026-05-06 17:39 | 41.42203 | -72.68946 | 2527 ft | 266 kts | 338° |
| 2026-05-06 17:39 | 41.43668 | -72.70129 | 2476 ft | 233 kts | 300° |
| 2026-05-06 17:40 | 41.44283 | -72.71936 | 2494 ft | 204 kts | 277° |
| 2026-05-06 17:40 | 41.44484 | -72.73751 | 2486 ft | 195 kts | 265° |
| 2026-05-06 17:40 | 41.44425 | -72.75533 | 2536 ft | 193 kts | 261° |
| 2026-05-06 17:40 | 41.44338 | -72.77324 | 2592 ft | 194 kts | 261° |
| 2026-05-06 17:41 | 41.44257 | -72.79125 | 2624 ft | 195 kts | 261° |
| 2026-05-06 17:41 | 41.44180 | -72.80935 | 2598 ft | 196 kts | 261° |
| 2026-05-06 17:41 | 41.44105 | -72.82753 | 2589 ft | 197 kts | 261° |
| 2026-05-06 17:41 | 41.44032 | -72.84574 | 2602 ft | 197 kts | 261° |
| 2026-05-06 17:42 | 41.43769 | -72.86291 | 2564 ft | 181 kts | 237° |
| 2026-05-06 17:42 | 41.42880 | -72.87330 | 2596 ft | 169 kts | 206° |
| 2026-05-06 17:42 | 41.41712 | -72.87628 | 2595 ft | 175 kts | 190° |
| 2026-05-06 17:42 | 41.40495 | -72.87746 | 2518 ft | 175 kts | 189° |
| 2026-05-06 17:43 | 41.39296 | -72.87852 | 2369 ft | 175 kts | 190° |
| 2026-05-06 17:43 | 41.38073 | -72.87952 | 2242 ft | 173 kts | 189° |
| 2026-05-06 17:43 | 41.36875 | -72.88046 | 2141 ft | 172 kts | 188° |
| 2026-05-06 17:43 | 41.35687 | -72.88133 | 1992 ft | 169 kts | 188° |
| 2026-05-06 17:44 | 41.34582 | -72.88210 | 1738 ft | 151 kts | 188° |
| 2026-05-06 17:44 | 41.33593 | -72.88277 | 1508 ft | 132 kts | 189° |
| 2026-05-06 17:44 | 41.32741 | -72.88341 | 1240 ft | 118 kts | 188° |
| 2026-05-06 17:44 | 41.31923 | -72.88398 | 1044 ft | 120 kts | 186° |
| 2026-05-06 17:45 | 41.31082 | -72.88455 | 953 ft | 122 kts | 186° |
| 2026-05-06 17:45 | 41.30222 | -72.88514 | 749 ft | 126 kts | 185° |
| 2026-05-06 17:45 | 41.29345 | -72.88574 | 531 ft | 126 kts | 182° |
| 2026-05-06 17:45 | 41.28444 | -72.88638 | 376 ft | 134 kts | 183° |
| 2026-05-06 17:46 | 41.27492 | -72.88691 | 150 ft | 138 kts | 184° |
| 2026-05-06 17:46 | 41.26555 | -72.88765 | 18 ft | 122 kts | 184° |
| 2026-05-06 17:46 | 41.26065 | -72.88795 | 26 ft | 50 kts | 183° |
| 2026-05-06 17:46 | 41.25852 | -72.88809 | 25 ft | 26 kts | 181° |
| 2026-05-06 17:47 | 41.25680 | -72.88817 | 20 ft | 20 kts | 182° |
| 2026-05-06 17:47 | 41.25612 | -72.88776 | 17 ft | 11 kts | 95° |
| 2026-05-06 17:47 | 41.25656 | -72.88722 | 19 ft | 8 kts | 3° |
| 2026-05-06 17:47 | 41.25706 | -72.88718 | 21 ft | 6 kts | 3° |
| 2026-05-06 17:48 | 41.25742 | -72.88715 | 22 ft | 5 kts | 3° |
| 2026-05-06 17:48 | 41.25785 | -72.88713 | 24 ft | 11 kts | 2° |
| 2026-05-06 17:48 | 41.25907 | -72.88693 | 23 ft | 23 kts | 9° |
| 2026-05-06 17:48 | 41.26068 | -72.88658 | 22 ft | 23 kts | 11° |
| 2026-05-06 17:49 | 41.26231 | -72.88619 | 20 ft | 25 kts | 9° |
| 2026-05-06 17:49 | 41.26331 | -72.88555 | 20 ft | 16 kts | 36° |
| 2026-05-06 17:49 | 41.26417 | -72.88471 | 20 ft | 11 kts | 36° |
| 2026-05-06 17:49 | 41.26456 | -72.88459 | 22 ft | 6 kts | 325° |
| 2026-05-06 17:50 | 41.26488 | -72.88507 | 22 ft | 9 kts | 310° |
| 2026-05-06 17:50 | 41.26548 | -72.88598 | 20 ft | 15 kts | 313° |
| 2026-05-06 17:50 | 41.26590 | -72.88662 | 20 ft | 3 kts | 311° |
| 2026-05-06 17:50 | 41.26591 | -72.88664 | 20 ft | 0 kts | 311° |
| 2026-05-06 17:51 | 41.26609 | -72.88691 | 18 ft | 11 kts | 311° |
| 2026-05-06 17:51 | 41.26676 | -72.88793 | 18 ft | 16 kts | 311° |
| 2026-05-06 17:52 | 41.26738 | -72.88888 | 19 ft | 13 kts | 310° |
| 2026-05-06 17:52 | 41.26792 | -72.88972 | 19 ft | 6 kts | 311° |
| 2026-05-06 17:52 | 41.26823 | -72.88970 | 18 ft | 5 kts | 39° |
| 2026-05-06 17:52 | 41.26863 | -72.88932 | 17 ft | 5 kts | 5° |
| 2026-05-06 17:53 | 41.26889 | -72.88961 | 18 ft | 5 kts | 306° |
| 2026-05-06 17:53 | 41.26909 | -72.88997 | 20 ft | 5 kts | 305° |
| 2026-05-06 17:53 | 41.26916 | -72.89010 | 21 ft | 0 kts | 303° |